Aérodrome :
LOGIN :

S'inscrire | Disclaimer

   EN    FR    IT 

 










Légende :    VFR   VFR Marginal   IFR   IFR Intensif   IFR Très Intensif
Visi : 
Plafond : 
>= 8 km
>= 3000ft
5 à 8 km
1000 à 3000 ft
1500m à 5 km
500 à 1000 ft
800 à 1500m
200 à 500 ft
< 800m
< 200 ft
Symboles :   Orages  Brouillard  Fortes neiges  Fortes précipitations  Vent > 20 kt
SIGMETs :   Divers  Orages  Givrage  Turbulence  Onde Orograph.  Cendres Volcan.







- Altitude de l'aérodrome : 529 ft
- Code IATA : CHR
- Voir les cartes d'approche


LFLX - Chateauroux

DERNIER METAR :
  • 151400Z AUTO 14022KT 9999 FEW049 OVC100 22/07 Q1010 TEMPO 15010G20KT

METARs EXPIRÉS :
  • 151330Z AUTO 16019G31KT 9999 FEW043 OVC100 22/07 Q1009 TEMPO 15010G20KT
  • 151300Z AUTO 15011KT CAVOK 22/08 Q1010 NOSIG
  • 151230Z AUTO 15010KT 9999 FEW039 OVC098 23/09 Q1009 NOSIG
  • 151200Z AUTO 15014KT 110V180 9999 FEW047 BKN110 OVC130 23/09 Q1009 NOSIG
  • 151130Z AUTO 13016KT CAVOK 23/09 Q1009 TEMPO 15010G20KT

TAF AMD TAF LFLX
Valide du 15 à 13h jusqu'au 16 à 18h UTC


151359Z 1513/1618 15010KT CAVOK
TEMPO 1514/1516 16020G32KT
TEMPO 1516/1521 15010G20KT
BECMG 1523/1602 VRB03KT
BECMG 1609/1612 20005KT
BECMG 1613/1616 32005KT
Pas de NOTAMs connus pour ce terrain.
1 SIGMET publié pour la FIR Bordeaux (LFBB) :
 
Turbulence forte
LFBB SIGMET 8 VALID 151400/151800 LFPW
LFBB BORDEAUX FIR/UIR SEV TURB FCST WI N4600 E00300 - N4400 E00245 - N4545 E00200 - N4600 E00300 SFC/FL070 STNR NC=



MET'MAP, la Météo Aéronautique d'un coup d'oeil ! - Copyright ORBIFLY Décembre 2007 - Disclaimer

ORBIFLY MET'MAP TEAM :

Programmation & Développement : Alexandra Zaïnal
Conception & Développement : Baudouin d'Aumeries
Co-Programmation & Développement : Marc-Olivier Méhu
Soutien technique & logistique : Manuel Goepfert

Contact : metmap@orbifly.com




SOURCES & CREDITS :

   NOAA